createdAt,value
2023-05-28T00:00:23.295Z,94971.00
2023-05-28T00:01:23.349Z,94973.00
2023-05-28T00:02:23.435Z,94971.00
2023-05-28T00:03:23.629Z,94969.00
2023-05-28T00:04:23.570Z,94969.00
2023-05-28T00:05:23.589Z,94967.00
2023-05-28T00:06:23.628Z,94969.00
2023-05-28T00:07:23.706Z,94969.00
2023-05-28T00:08:23.774Z,94969.00
2023-05-28T00:09:23.804Z,94969.00
2023-05-28T00:10:23.960Z,94969.00
2023-05-28T00:11:24.054Z,94969.00
2023-05-28T00:12:23.989Z,94969.00
2023-05-28T00:13:24.101Z,94971.00
2023-05-28T00:14:24.123Z,94969.00
2023-05-28T00:15:24.179Z,94969.00
2023-05-28T00:16:24.276Z,94969.00
2023-05-28T00:17:24.355Z,94971.00
2023-05-28T00:18:24.406Z,94969.00
2023-05-28T00:19:24.448Z,94969.00
2023-05-28T00:20:24.545Z,94971.00
2023-05-28T00:21:24.547Z,94969.00
2023-05-28T00:22:24.624Z,94971.00
2023-05-28T00:23:24.690Z,94969.00
2023-05-28T00:24:24.745Z,94967.00
2023-05-28T00:25:24.826Z,94967.00
2023-05-28T00:26:24.911Z,94967.00
2023-05-28T00:27:24.910Z,94967.00
2023-05-28T00:28:25.063Z,94967.00
2023-05-28T00:29:25.041Z,94969.00
2023-05-28T00:30:25.103Z,94967.00
2023-05-28T00:31:25.175Z,94967.00
2023-05-28T00:32:25.245Z,94967.00
2023-05-28T00:33:25.223Z,94967.00
2023-05-28T00:34:25.267Z,94967.00
2023-05-28T00:35:25.329Z,94969.00
2023-05-28T00:36:25.394Z,94969.00
2023-05-28T00:37:25.456Z,94969.00
2023-05-28T00:38:25.550Z,94965.00
2023-05-28T00:39:25.568Z,94969.00
2023-05-28T00:40:25.644Z,94967.00
2023-05-28T00:41:25.692Z,94967.00
2023-05-28T00:42:25.769Z,94969.00
2023-05-28T00:43:25.797Z,94969.00
2023-05-28T00:44:25.850Z,94969.00
2023-05-28T00:45:25.914Z,94969.00
2023-05-28T00:46:26.001Z,94967.00
2023-05-28T00:47:26.114Z,94967.00
2023-05-28T00:48:26.075Z,94969.00
2023-05-28T00:49:26.144Z,94969.00
2023-05-28T00:50:26.176Z,94967.00
2023-05-28T00:51:26.280Z,94967.00
2023-05-28T00:52:26.323Z,94967.00
2023-05-28T00:53:26.384Z,94965.00
2023-05-28T00:54:26.412Z,94965.00
2023-05-28T00:55:26.458Z,94965.00
2023-05-28T00:56:26.487Z,94963.00
2023-05-28T00:57:26.562Z,94965.00
2023-05-28T00:58:26.594Z,94961.00
2023-05-28T00:59:26.679Z,94960.00
2023-05-28T01:00:26.714Z,94960.00
2023-05-28T01:01:26.808Z,94958.00
2023-05-28T01:02:26.865Z,94958.00
2023-05-28T01:03:26.923Z,94956.00
2023-05-28T01:04:26.862Z,94954.00
2023-05-28T01:05:26.917Z,94954.00
2023-05-28T01:06:26.931Z,94952.00
2023-05-28T01:07:26.936Z,94954.00
2023-05-28T01:08:27.032Z,94954.00
2023-05-28T01:09:27.068Z,94956.00
2023-05-28T01:10:27.037Z,94954.00
2023-05-28T01:11:27.036Z,94952.00
2023-05-28T01:12:27.112Z,94952.00
2023-05-28T01:13:27.214Z,94950.00
2023-05-28T01:14:27.123Z,94950.00
2023-05-28T01:15:27.120Z,94950.00
2023-05-28T01:16:27.240Z,94948.00
2023-05-28T01:17:27.241Z,94948.00
2023-05-28T01:18:27.256Z,94948.00
2023-05-28T01:19:27.378Z,94946.00
2023-05-28T01:20:27.473Z,94944.00
2023-05-28T01:21:27.418Z,94940.00
2023-05-28T01:22:27.397Z,94942.00
2023-05-28T01:23:27.382Z,94942.00
2023-05-28T01:24:27.414Z,94942.00
2023-05-28T01:25:27.422Z,94940.00
2023-05-28T01:26:27.462Z,94936.00
2023-05-28T01:27:27.446Z,94940.00
2023-05-28T01:28:27.685Z,94938.00
2023-05-28T01:29:27.498Z,94938.00
2023-05-28T01:30:27.501Z,94938.00
2023-05-28T01:31:27.574Z,94940.00
2023-05-28T01:32:27.556Z,94940.00
2023-05-28T01:33:27.520Z,94938.00
2023-05-28T01:34:27.620Z,94940.00
2023-05-28T01:35:27.535Z,94938.00
2023-05-28T01:36:27.535Z,94936.00
2023-05-28T01:37:27.575Z,94936.00
2023-05-28T01:38:27.556Z,94936.00
2023-05-28T01:39:27.568Z,94934.00
2023-05-28T01:40:27.524Z,94936.00
2023-05-28T01:41:27.566Z,94936.00
2023-05-28T01:42:27.571Z,94934.00
2023-05-28T01:43:27.518Z,94938.00
2023-05-28T01:44:27.548Z,94934.00
2023-05-28T01:45:27.658Z,94932.00
2023-05-28T01:46:27.720Z,94934.00
2023-05-28T01:47:27.562Z,94932.00
2023-05-28T01:48:27.587Z,94930.00
2023-05-28T01:49:27.562Z,94930.00
2023-05-28T01:50:27.537Z,94926.00
2023-05-28T01:51:27.543Z,94930.00
2023-05-28T01:52:27.533Z,94930.00
2023-05-28T01:53:27.577Z,94934.00
2023-05-28T01:54:27.566Z,94934.00
2023-05-28T01:55:27.570Z,94934.00
2023-05-28T01:56:27.541Z,94932.00
2023-05-28T01:57:27.528Z,94932.00
2023-05-28T01:58:27.729Z,94930.00
2023-05-28T01:59:27.531Z,94930.00
2023-05-28T02:00:27.566Z,94930.00
2023-05-28T02:01:27.576Z,94930.00
2023-05-28T02:02:27.528Z,94932.00
2023-05-28T02:03:27.515Z,94930.00
2023-05-28T02:04:27.534Z,94930.00
2023-05-28T02:05:27.599Z,94930.00
2023-05-28T02:06:27.542Z,94934.00
2023-05-28T02:07:27.497Z,94932.00
2023-05-28T02:08:27.514Z,94930.00
2023-05-28T02:09:27.553Z,94930.00
2023-05-28T02:10:27.539Z,94932.00
2023-05-28T02:11:27.534Z,94932.00
2023-05-28T02:12:27.551Z,94930.00
2023-05-28T02:13:27.591Z,94930.00
2023-05-28T02:14:27.519Z,94930.00
2023-05-28T02:15:27.539Z,94926.00
2023-05-28T02:16:27.608Z,94926.00
2023-05-28T02:17:27.656Z,94922.00
2023-05-28T02:18:27.542Z,94924.00
2023-05-28T02:19:27.515Z,94924.00
2023-05-28T02:20:27.585Z,94920.00
2023-05-28T02:21:27.552Z,94922.00
2023-05-28T02:22:27.544Z,94924.00
2023-05-28T02:23:27.587Z,94922.00
2023-05-28T02:24:27.570Z,94920.00
2023-05-28T02:25:27.534Z,94922.00
2023-05-28T02:26:27.580Z,94922.00
2023-05-28T02:27:27.699Z,94922.00
2023-05-28T02:28:27.554Z,94918.00
2023-05-28T02:29:27.552Z,94920.00
2023-05-28T02:30:27.562Z,94922.00
2023-05-28T02:31:27.638Z,94920.00
2023-05-28T02:32:27.627Z,94920.00
2023-05-28T02:33:27.552Z,94920.00
2023-05-28T02:34:27.558Z,94916.00
2023-05-28T02:35:27.707Z,94922.00
2023-05-28T02:36:27.641Z,94918.00
2023-05-28T02:37:27.616Z,94918.00
2023-05-28T02:38:27.606Z,94920.00
2023-05-28T02:39:27.660Z,94920.00
2023-05-28T02:40:27.620Z,94918.00
2023-05-28T02:41:27.656Z,94920.00
2023-05-28T02:42:27.643Z,94920.00
2023-05-28T02:43:27.673Z,94920.00
2023-05-28T02:44:27.624Z,94920.00
2023-05-28T02:45:27.686Z,94920.00
2023-05-28T02:46:27.715Z,94920.00
2023-05-28T02:47:27.687Z,94920.00
2023-05-28T02:48:27.668Z,94920.00
2023-05-28T02:49:27.662Z,94920.00
2023-05-28T02:50:27.681Z,94922.00
2023-05-28T02:51:27.691Z,94922.00
2023-05-28T02:52:27.687Z,94922.00
2023-05-28T02:53:27.867Z,94920.00
2023-05-28T02:54:27.663Z,94920.00
2023-05-28T02:55:27.704Z,94920.00
2023-05-28T02:56:27.728Z,94922.00
2023-05-28T02:57:27.719Z,94920.00
2023-05-28T02:58:27.705Z,94922.00
2023-05-28T02:59:27.725Z,94922.00
2023-05-28T03:00:27.731Z,94922.00
2023-05-28T03:01:27.760Z,94922.00
2023-05-28T03:02:27.779Z,94924.00
2023-05-28T03:03:27.885Z,94926.00
2023-05-28T03:04:27.728Z,94926.00
2023-05-28T03:05:27.776Z,94930.00
2023-05-28T03:06:27.870Z,94930.00
2023-05-28T03:07:27.785Z,94934.00
2023-05-28T03:08:27.792Z,94934.00
2023-05-28T03:09:27.756Z,94936.00
2023-05-28T03:10:27.782Z,94938.00
2023-05-28T03:11:27.780Z,94938.00
2023-05-28T03:12:27.810Z,94934.00
2023-05-28T03:13:27.824Z,94938.00
2023-05-28T03:14:27.830Z,94936.00
2023-05-28T03:15:27.999Z,94936.00
2023-05-28T03:16:27.900Z,94936.00
2023-05-28T03:17:27.859Z,94938.00
2023-05-28T03:18:27.821Z,94940.00
2023-05-28T03:19:27.875Z,94940.00
2023-05-28T03:20:27.933Z,94944.00
2023-05-28T03:21:27.877Z,94942.00
2023-05-28T03:22:28.037Z,94946.00
2023-05-28T03:23:27.930Z,94944.00
2023-05-28T03:24:28.036Z,94944.00
2023-05-28T03:25:27.906Z,94944.00
2023-05-28T03:26:27.960Z,94942.00
2023-05-28T03:27:28.054Z,94942.00
2023-05-28T03:28:27.921Z,94944.00
2023-05-28T03:29:27.971Z,94944.00
2023-05-28T03:30:27.996Z,94940.00
2023-05-28T03:31:28.087Z,94944.00
2023-05-28T03:32:28.037Z,94942.00
2023-05-28T03:33:28.145Z,94944.00
2023-05-28T03:34:28.006Z,94942.00
2023-05-28T03:35:28.020Z,94942.00
2023-05-28T03:36:28.048Z,94940.00
2023-05-28T03:37:28.079Z,94942.00
2023-05-28T03:38:28.059Z,94940.00
2023-05-28T03:39:28.138Z,94942.00
2023-05-28T03:40:28.116Z,94942.00
2023-05-28T03:41:28.125Z,94942.00
2023-05-28T03:42:28.160Z,94944.00
2023-05-28T03:43:28.096Z,94944.00
2023-05-28T03:44:28.145Z,94940.00
2023-05-28T03:45:28.151Z,94940.00
2023-05-28T03:46:28.201Z,94938.00
2023-05-28T03:47:28.190Z,94940.00
2023-05-28T03:48:28.541Z,94938.00
2023-05-28T03:49:28.174Z,94938.00
2023-05-28T03:50:28.529Z,94940.00
2023-05-28T03:51:28.981Z,94938.00
2023-05-28T03:52:28.387Z,94940.00
2023-05-28T03:53:28.253Z,94940.00
2023-05-28T03:54:28.236Z,94942.00
2023-05-28T03:55:28.331Z,94944.00
2023-05-28T03:56:28.298Z,94944.00
2023-05-28T03:57:28.323Z,94944.00
2023-05-28T03:58:28.332Z,94946.00
2023-05-28T03:59:28.329Z,94946.00
2023-05-28T04:00:28.362Z,94944.00
2023-05-28T04:01:28.360Z,94950.00
2023-05-28T04:02:28.389Z,94950.00
2023-05-28T04:03:28.520Z,94950.00
2023-05-28T04:04:28.411Z,94948.00
2023-05-28T04:05:28.437Z,94950.00
2023-05-28T04:06:28.429Z,94948.00
2023-05-28T04:07:28.488Z,94948.00
2023-05-28T04:08:28.438Z,94946.00
2023-05-28T04:09:28.454Z,94948.00
2023-05-28T04:10:28.447Z,94950.00
2023-05-28T04:11:28.561Z,94952.00
2023-05-28T04:12:28.533Z,94950.00
2023-05-28T04:13:28.539Z,94952.00
2023-05-28T04:14:28.536Z,94952.00
2023-05-28T04:15:28.618Z,94952.00
2023-05-28T04:16:28.668Z,94950.00
2023-05-28T04:17:28.663Z,94952.00
2023-05-28T04:18:28.614Z,94956.00
2023-05-28T04:19:28.634Z,94952.00
2023-05-28T04:20:28.686Z,94952.00
2023-05-28T04:21:28.641Z,94954.00
2023-05-28T04:22:28.692Z,94954.00
2023-05-28T04:23:28.704Z,94954.00
2023-05-28T04:24:28.712Z,94952.00
2023-05-28T04:25:28.718Z,94952.00
2023-05-28T04:26:28.792Z,94954.00
2023-05-28T04:27:28.760Z,94952.00
2023-05-28T04:28:29.046Z,94952.00
2023-05-28T04:29:28.799Z,94952.00
2023-05-28T04:30:28.807Z,94952.00
2023-05-28T04:31:28.825Z,94952.00
2023-05-28T04:32:28.864Z,94952.00
2023-05-28T04:33:28.831Z,94952.00
2023-05-28T04:34:28.836Z,94952.00
2023-05-28T04:35:28.791Z,94952.00
2023-05-28T04:36:28.848Z,94952.00
2023-05-28T04:37:28.852Z,94952.00
2023-05-28T04:38:28.844Z,94956.00
2023-05-28T04:39:28.831Z,94954.00
2023-05-28T04:40:28.836Z,94956.00
2023-05-28T04:41:28.866Z,94954.00
2023-05-28T04:42:28.880Z,94956.00
2023-05-28T04:43:28.851Z,94954.00
2023-05-28T04:44:28.863Z,94958.00
2023-05-28T04:45:28.998Z,94954.00
2023-05-28T04:46:28.959Z,94952.00
2023-05-28T04:47:28.920Z,94954.00
2023-05-28T04:48:28.872Z,94954.00
2023-05-28T04:49:28.967Z,94952.00
2023-05-28T04:50:28.882Z,94954.00
2023-05-28T04:51:28.831Z,94956.00
2023-05-28T04:52:28.851Z,94956.00
2023-05-28T04:53:28.852Z,94956.00
2023-05-28T04:54:28.857Z,94960.00
2023-05-28T04:55:28.939Z,94961.00
2023-05-28T04:56:28.947Z,94958.00
2023-05-28T04:57:28.881Z,94960.00
2023-05-28T04:58:28.951Z,94956.00
2023-05-28T04:59:29.108Z,94954.00
2023-05-28T05:00:29.011Z,94950.00
2023-05-28T05:01:29.167Z,94952.00
2023-05-28T05:02:29.176Z,94950.00
2023-05-28T05:03:29.216Z,94948.00
2023-05-28T05:04:29.301Z,94952.00
2023-05-28T05:05:29.305Z,94952.00
2023-05-28T05:06:29.359Z,94954.00
2023-05-28T05:07:29.464Z,94952.00
2023-05-28T05:08:29.482Z,94954.00
2023-05-28T05:09:29.550Z,94956.00
2023-05-28T05:10:29.591Z,94956.00
2023-05-28T05:11:29.649Z,94958.00
2023-05-28T05:12:29.671Z,94958.00
2023-05-28T05:13:29.774Z,94954.00
2023-05-28T05:14:29.828Z,94958.00
2023-05-28T05:15:29.913Z,94956.00
2023-05-28T05:16:29.945Z,94954.00
2023-05-28T05:17:30.042Z,94958.00
2023-05-28T05:18:30.042Z,94956.00
2023-05-28T05:19:30.177Z,94956.00
2023-05-28T05:20:30.197Z,94956.00
2023-05-28T05:21:30.238Z,94956.00
2023-05-28T05:22:30.301Z,94958.00
2023-05-28T05:23:30.366Z,94956.00
2023-05-28T05:24:30.408Z,94956.00
2023-05-28T05:25:30.486Z,94954.00
2023-05-28T05:26:30.582Z,94954.00
2023-05-28T05:27:30.629Z,94954.00
2023-05-28T05:28:30.697Z,94954.00
2023-05-28T05:29:30.703Z,94956.00
2023-05-28T05:30:30.809Z,94954.00
2023-05-28T05:31:30.818Z,94952.00
2023-05-28T05:32:30.945Z,94954.00
2023-05-28T05:33:30.964Z,94954.00
2023-05-28T05:34:30.994Z,94956.00
2023-05-28T05:35:31.114Z,94954.00
2023-05-28T05:36:31.109Z,94954.00
2023-05-28T05:37:31.312Z,94956.00
2023-05-28T05:38:31.227Z,94956.00
2023-05-28T05:39:31.359Z,94954.00
2023-05-28T05:40:31.381Z,94952.00
2023-05-28T05:41:31.443Z,94952.00
2023-05-28T05:42:31.500Z,94954.00
2023-05-28T05:43:31.542Z,94954.00
2023-05-28T05:44:31.615Z,94954.00
2023-05-28T05:45:31.648Z,94950.00
2023-05-28T05:46:31.905Z,94954.00
2023-05-28T05:47:31.904Z,94954.00
2023-05-28T05:48:31.856Z,94954.00
2023-05-28T05:49:31.951Z,94954.00
2023-05-28T05:50:31.970Z,94956.00
2023-05-28T05:51:31.985Z,94952.00
2023-05-28T05:52:32.025Z,94954.00
2023-05-28T05:53:32.103Z,94952.00
2023-05-28T05:54:32.139Z,94954.00
2023-05-28T05:55:32.286Z,94954.00
2023-05-28T05:56:32.156Z,94950.00
2023-05-28T05:57:32.267Z,94952.00
2023-05-28T05:58:32.343Z,94952.00
2023-05-28T05:59:32.345Z,94952.00
2023-05-28T06:00:32.358Z,94956.00
2023-05-28T06:01:32.296Z,94956.00
2023-05-28T06:02:32.358Z,94954.00
2023-05-28T06:03:32.406Z,94954.00
2023-05-28T06:04:32.386Z,94954.00
2023-05-28T06:05:32.604Z,94954.00
2023-05-28T06:06:32.486Z,94954.00
2023-05-28T06:07:32.540Z,94952.00
2023-05-28T06:08:32.603Z,94954.00
2023-05-28T06:09:32.680Z,94954.00
2023-05-28T06:10:32.615Z,94950.00
2023-05-28T06:11:32.666Z,94954.00
2023-05-28T06:12:32.764Z,94950.00
2023-05-28T06:13:32.745Z,94950.00
2023-05-28T06:14:32.787Z,94950.00
2023-05-28T06:15:32.838Z,94948.00
2023-05-28T06:16:32.933Z,94948.00
2023-05-28T06:17:32.992Z,94948.00
2023-05-28T06:18:32.988Z,94948.00
2023-05-28T06:19:33.060Z,94948.00
2023-05-28T06:20:33.093Z,94948.00
2023-05-28T06:21:33.101Z,94946.00
2023-05-28T06:22:33.109Z,94948.00
2023-05-28T06:23:33.131Z,94950.00
2023-05-28T06:24:33.153Z,94950.00
2023-05-28T06:25:33.171Z,94950.00
2023-05-28T06:26:33.234Z,94952.00
2023-05-28T06:27:33.245Z,94952.00
2023-05-28T06:28:33.309Z,94954.00
2023-05-28T06:29:33.293Z,94954.00
2023-05-28T06:30:33.368Z,94952.00
2023-05-28T06:31:33.459Z,94952.00
2023-05-28T06:32:33.483Z,94952.00
2023-05-28T06:33:33.538Z,94948.00
2023-05-28T06:34:33.522Z,94944.00
2023-05-28T06:35:33.536Z,94946.00
2023-05-28T06:36:33.568Z,94948.00
2023-05-28T06:37:33.552Z,94946.00
2023-05-28T06:38:33.630Z,94944.00
2023-05-28T06:39:33.778Z,94946.00
2023-05-28T06:40:33.681Z,94944.00
2023-05-28T06:41:33.715Z,94946.00
2023-05-28T06:42:33.760Z,94946.00
2023-05-28T06:43:33.780Z,94942.00
2023-05-28T06:44:33.779Z,94942.00
2023-05-28T06:45:33.834Z,94944.00
2023-05-28T06:46:33.922Z,94942.00
2023-05-28T06:47:33.868Z,94942.00
2023-05-28T06:48:33.860Z,94942.00
2023-05-28T06:49:33.911Z,94942.00
2023-05-28T06:50:33.921Z,94942.00
2023-05-28T06:51:33.911Z,94942.00
2023-05-28T06:52:33.924Z,94942.00
2023-05-28T06:53:33.993Z,94942.00
2023-05-28T06:54:34.058Z,94942.00
2023-05-28T06:55:34.089Z,94944.00
2023-05-28T06:56:34.105Z,94944.00
2023-05-28T06:57:34.126Z,94942.00
2023-05-28T06:58:34.164Z,94944.00
2023-05-28T06:59:34.226Z,94940.00
2023-05-28T07:00:34.228Z,94944.00
2023-05-28T07:01:34.415Z,94942.00
2023-05-28T07:02:34.328Z,94944.00
2023-05-28T07:03:34.308Z,94944.00
2023-05-28T07:04:34.358Z,94944.00
2023-05-28T07:05:34.375Z,94946.00
2023-05-28T07:06:34.370Z,94946.00
2023-05-28T07:07:34.440Z,94944.00
2023-05-28T07:08:34.453Z,94942.00
2023-05-28T07:09:34.478Z,94942.00
2023-05-28T07:10:34.664Z,94940.00
2023-05-28T07:11:34.547Z,94940.00
2023-05-28T07:12:34.596Z,94940.00
2023-05-28T07:13:34.580Z,94940.00
2023-05-28T07:14:34.589Z,94940.00
2023-05-28T07:15:34.599Z,94940.00
2023-05-28T07:16:34.634Z,94942.00
2023-05-28T07:17:34.653Z,94946.00
2023-05-28T07:18:34.739Z,94946.00
2023-05-28T07:19:34.691Z,94948.00
2023-05-28T07:20:34.786Z,94948.00
2023-05-28T07:21:34.755Z,94948.00
2023-05-28T07:22:34.756Z,94948.00
2023-05-28T07:23:34.772Z,94948.00
2023-05-28T07:24:34.805Z,94948.00
2023-05-28T07:25:34.860Z,94948.00
2023-05-28T07:26:34.813Z,94948.00
2023-05-28T07:27:34.884Z,94942.00
2023-05-28T07:28:34.890Z,94948.00
2023-05-28T07:29:34.893Z,94946.00
2023-05-28T07:30:34.930Z,94944.00
2023-05-28T07:31:35.034Z,94944.00
2023-05-28T07:32:35.029Z,94944.00
2023-05-28T07:33:35.058Z,94946.00
2023-05-28T07:34:35.034Z,94946.00
2023-05-28T07:35:35.048Z,94944.00
2023-05-28T07:36:36.757Z,94946.00
2023-05-28T07:37:35.100Z,94944.00
2023-05-28T07:38:35.057Z,94942.00
2023-05-28T07:39:35.058Z,94940.00
2023-05-28T07:40:35.077Z,94940.00
2023-05-28T07:41:35.083Z,94944.00
2023-05-28T07:42:35.855Z,94942.00
2023-05-28T07:43:35.146Z,94942.00
2023-05-28T07:44:35.036Z,94938.00
2023-05-28T07:45:35.066Z,94938.00
2023-05-28T07:46:35.097Z,94936.00
2023-05-28T07:47:35.037Z,94938.00
2023-05-28T07:48:35.032Z,94940.00
2023-05-28T07:49:35.039Z,94938.00
2023-05-28T07:50:35.011Z,94938.00
2023-05-28T07:51:34.991Z,94936.00
2023-05-28T07:52:35.015Z,94940.00
2023-05-28T07:53:34.978Z,94938.00
2023-05-28T07:54:34.964Z,94936.00
2023-05-28T07:55:34.981Z,94936.00
2023-05-28T07:56:34.963Z,94934.00
2023-05-28T07:57:34.900Z,94934.00
2023-05-28T07:58:34.930Z,94938.00
2023-05-28T07:59:34.957Z,94938.00
2023-05-28T08:00:34.920Z,94938.00
2023-05-28T08:01:34.909Z,94938.00
2023-05-28T08:02:35.035Z,94936.00
2023-05-28T08:03:35.073Z,94938.00
2023-05-28T08:04:35.094Z,94938.00
2023-05-28T08:05:34.871Z,94936.00
2023-05-28T08:06:34.877Z,94932.00
2023-05-28T08:07:34.900Z,94930.00
2023-05-28T08:08:34.867Z,94926.00
2023-05-28T08:09:35.019Z,94926.00
2023-05-28T08:10:34.871Z,94924.00
2023-05-28T08:11:34.893Z,94922.00
2023-05-28T08:12:34.883Z,94920.00
2023-05-28T08:13:34.803Z,94916.00
2023-05-28T08:14:34.832Z,94918.00
2023-05-28T08:15:34.944Z,94916.00
2023-05-28T08:16:34.974Z,94916.00
2023-05-28T08:17:35.066Z,94914.00
2023-05-28T08:18:35.076Z,94914.00
2023-05-28T08:19:35.136Z,94913.00
2023-05-28T08:20:35.254Z,94911.00
2023-05-28T08:21:35.240Z,94907.00
2023-05-28T08:22:35.310Z,94909.00
2023-05-28T08:23:35.360Z,94907.00
2023-05-28T08:24:35.391Z,94907.00
2023-05-28T08:25:35.497Z,94907.00
2023-05-28T08:26:35.538Z,94905.00
2023-05-28T08:27:35.544Z,94903.00
2023-05-28T08:28:37.279Z,94903.00
2023-05-28T08:29:35.755Z,94901.00
2023-05-28T08:30:35.769Z,94903.00
2023-05-28T08:31:35.917Z,94903.00
2023-05-28T08:32:35.982Z,94903.00
2023-05-28T08:33:36.046Z,94901.00
2023-05-28T08:34:36.074Z,94903.00
2023-05-28T08:35:36.117Z,94903.00
2023-05-28T08:36:36.172Z,94901.00
2023-05-28T08:37:36.287Z,94901.00
2023-05-28T08:38:36.334Z,94899.00
2023-05-28T08:39:36.393Z,94901.00
2023-05-28T08:40:36.498Z,94897.00
2023-05-28T08:41:36.512Z,94897.00
2023-05-28T08:42:36.622Z,94895.00
2023-05-28T08:43:36.640Z,94893.00
2023-05-28T08:44:36.732Z,94899.00
2023-05-28T08:45:36.790Z,94899.00
2023-05-28T08:46:36.839Z,94897.00
2023-05-28T08:47:36.881Z,94897.00
2023-05-28T08:48:36.923Z,94895.00
2023-05-28T08:49:36.985Z,94895.00
2023-05-28T08:50:37.018Z,94897.00
2023-05-28T08:51:37.136Z,94893.00
2023-05-28T08:52:37.149Z,94893.00
2023-05-28T08:53:37.209Z,94893.00
2023-05-28T08:54:37.235Z,94891.00
2023-05-28T08:55:37.344Z,94893.00
2023-05-28T08:56:37.404Z,94891.00
2023-05-28T08:57:37.443Z,94883.00
2023-05-28T08:58:37.545Z,94893.00
2023-05-28T08:59:37.579Z,94891.00
2023-05-28T09:00:37.947Z,94883.00
2023-05-28T09:01:37.620Z,94881.00
2023-05-28T09:02:37.776Z,94881.00
2023-05-28T09:03:37.915Z,94877.00
2023-05-28T09:04:37.784Z,94881.00
2023-05-28T09:05:37.855Z,94877.00
2023-05-28T09:06:38.055Z,94879.00
2023-05-28T09:07:37.981Z,94877.00
2023-05-28T09:08:38.041Z,94875.00
2023-05-28T09:09:38.083Z,94875.00
2023-05-28T09:10:38.152Z,94873.00
2023-05-28T09:11:38.200Z,94873.00
2023-05-28T09:12:38.254Z,94871.00
2023-05-28T09:13:38.385Z,94869.00
2023-05-28T09:14:38.381Z,94869.00
2023-05-28T09:15:38.500Z,94866.00
2023-05-28T09:16:38.502Z,94869.00
2023-05-28T09:17:38.657Z,94866.00
2023-05-28T09:18:38.642Z,94866.00
2023-05-28T09:19:38.640Z,94862.00
2023-05-28T09:20:38.723Z,94866.00
2023-05-28T09:21:38.731Z,94858.00
2023-05-28T09:22:38.812Z,94858.00
2023-05-28T09:23:38.789Z,94856.00
2023-05-28T09:24:38.853Z,94856.00
2023-05-28T09:25:38.923Z,94854.00
2023-05-28T09:26:38.924Z,94858.00
2023-05-28T09:27:39.002Z,94858.00
2023-05-28T09:28:39.027Z,94854.00
2023-05-28T09:29:39.100Z,94854.00
2023-05-28T09:30:39.401Z,94856.00
2023-05-28T09:31:39.257Z,94854.00
2023-05-28T09:32:39.269Z,94854.00
2023-05-28T09:33:39.276Z,94852.00
2023-05-28T09:34:39.337Z,94854.00
2023-05-28T09:35:39.338Z,94852.00
2023-05-28T09:36:39.464Z,94852.00
2023-05-28T09:37:39.455Z,94850.00
2023-05-28T09:38:40.384Z,94848.00
2023-05-28T09:39:39.521Z,94848.00
2023-05-28T09:40:39.582Z,94848.00
2023-05-28T09:41:39.575Z,94844.00
2023-05-28T09:42:39.635Z,94846.00
2023-05-28T09:43:39.651Z,94842.00
2023-05-28T09:44:39.761Z,94846.00
2023-05-28T09:45:39.768Z,94842.00
2023-05-28T09:46:39.756Z,94840.00
2023-05-28T09:47:39.835Z,94842.00
2023-05-28T09:48:39.886Z,94840.00
2023-05-28T09:49:39.898Z,94840.00
2023-05-28T09:50:39.902Z,94836.00
2023-05-28T09:51:39.966Z,94838.00
2023-05-28T09:52:39.990Z,94834.00
2023-05-28T09:53:40.041Z,94834.00
2023-05-28T09:54:40.096Z,94834.00
2023-05-28T09:55:40.099Z,94834.00
2023-05-28T09:56:40.222Z,94830.00
2023-05-28T09:57:40.135Z,94832.00
2023-05-28T09:58:40.216Z,94830.00
2023-05-28T09:59:40.234Z,94830.00
2023-05-28T10:00:40.234Z,94826.00
2023-05-28T10:01:40.326Z,94828.00
2023-05-28T10:02:40.456Z,94826.00
2023-05-28T10:03:40.434Z,94826.00
2023-05-28T10:04:40.371Z,94826.00
2023-05-28T10:05:40.462Z,94822.00
2023-05-28T10:06:40.384Z,94822.00
2023-05-28T10:07:40.379Z,94824.00
2023-05-28T10:08:40.437Z,94822.00
2023-05-28T10:09:40.432Z,94820.00
2023-05-28T10:10:40.444Z,94816.00
2023-05-28T10:11:40.530Z,94818.00
2023-05-28T10:12:41.277Z,94816.00
2023-05-28T10:13:40.514Z,94820.00
2023-05-28T10:14:40.525Z,94818.00
2023-05-28T10:15:40.554Z,94814.00
2023-05-28T10:16:40.592Z,94814.00
2023-05-28T10:17:40.590Z,94818.00
2023-05-28T10:18:41.933Z,94816.00
2023-05-28T10:19:40.689Z,94814.00
2023-05-28T10:20:41.004Z,94813.00
2023-05-28T10:21:40.685Z,94813.00
2023-05-28T10:22:40.660Z,94813.00
2023-05-28T10:23:40.695Z,94811.00
2023-05-28T10:24:40.699Z,94809.00
2023-05-28T10:25:40.715Z,94807.00
2023-05-28T10:26:40.748Z,94805.00
2023-05-28T10:27:40.779Z,94803.00
2023-05-28T10:28:40.780Z,94805.00
2023-05-28T10:29:40.850Z,94801.00
2023-05-28T10:30:40.801Z,94799.00
2023-05-28T10:31:40.818Z,94797.00
2023-05-28T10:32:40.892Z,94797.00
2023-05-28T10:33:40.974Z,94795.00
2023-05-28T10:34:40.884Z,94793.00
2023-05-28T10:35:40.976Z,94791.00
2023-05-28T10:36:40.850Z,94789.00
2023-05-28T10:37:40.854Z,94789.00
2023-05-28T10:38:40.911Z,94787.00
2023-05-28T10:39:40.934Z,94785.00
2023-05-28T10:40:40.944Z,94785.00
2023-05-28T10:41:40.929Z,94783.00
2023-05-28T10:42:41.045Z,94783.00
2023-05-28T10:43:40.944Z,94779.00
2023-05-28T10:44:40.934Z,94777.00
2023-05-28T10:45:41.090Z,94773.00
2023-05-28T10:46:41.053Z,94773.00
2023-05-28T10:47:41.111Z,94769.00
2023-05-28T10:48:40.989Z,94767.00
2023-05-28T10:49:40.984Z,94766.00
2023-05-28T10:50:40.986Z,94760.00
2023-05-28T10:51:41.000Z,94754.00
2023-05-28T10:52:40.964Z,94756.00
2023-05-28T10:53:40.948Z,94754.00
2023-05-28T10:54:41.015Z,94758.00
2023-05-28T10:55:41.039Z,94752.00
2023-05-28T10:56:41.032Z,94752.00
2023-05-28T10:57:41.047Z,94752.00
2023-05-28T10:58:41.174Z,94748.00
2023-05-28T10:59:41.057Z,94750.00
2023-05-28T11:00:41.064Z,94748.00
2023-05-28T11:01:41.116Z,94746.00
2023-05-28T11:02:41.097Z,94744.00
2023-05-28T11:03:41.561Z,94746.00
2023-05-28T11:04:41.124Z,94744.00
2023-05-28T11:05:41.092Z,94740.00
2023-05-28T11:06:41.104Z,94742.00
2023-05-28T11:07:41.097Z,94738.00
2023-05-28T11:08:41.114Z,94734.00
2023-05-28T11:09:41.066Z,94734.00
2023-05-28T11:10:41.085Z,94732.00
2023-05-28T11:11:41.145Z,94734.00
2023-05-28T11:12:41.074Z,94730.00
2023-05-28T11:13:41.099Z,94728.00
2023-05-28T11:14:41.099Z,94726.00
2023-05-28T11:15:41.113Z,94726.00
2023-05-28T11:16:41.147Z,94724.00
2023-05-28T11:17:41.138Z,94722.00
2023-05-28T11:18:41.441Z,94724.00
2023-05-28T11:19:41.085Z,94722.00
2023-05-28T11:20:41.120Z,94724.00
2023-05-28T11:21:41.098Z,94720.00
2023-05-28T11:22:41.102Z,94720.00
2023-05-28T11:23:41.128Z,94719.00
2023-05-28T11:24:41.118Z,94719.00
2023-05-28T11:25:41.145Z,94717.00
2023-05-28T11:26:41.125Z,94720.00
2023-05-28T11:27:41.150Z,94717.00
2023-05-28T11:28:41.158Z,94717.00
2023-05-28T11:29:41.210Z,94717.00
2023-05-28T11:30:41.103Z,94715.00
2023-05-28T11:31:41.177Z,94713.00
2023-05-28T11:32:41.202Z,94713.00
2023-05-28T11:33:41.146Z,94711.00
2023-05-28T11:34:41.134Z,94709.00
2023-05-28T11:35:41.128Z,94709.00
2023-05-28T11:36:41.192Z,94707.00
2023-05-28T11:37:41.095Z,94707.00
2023-05-28T11:38:41.164Z,94705.00
2023-05-28T11:39:41.127Z,94705.00
2023-05-28T11:40:41.740Z,94707.00
2023-05-28T11:41:41.181Z,94703.00
2023-05-28T11:42:41.222Z,94703.00
2023-05-28T11:43:41.246Z,94705.00
2023-05-28T11:44:41.254Z,94701.00